sensor_id;sensor_type;location;lat;lon;timestamp;temperature;humidity
30889;DHT22;51092;50.874;7.024;2023-05-13T00:00:01;13.90;99.90
30889;DHT22;51092;50.874;7.024;2023-05-13T00:01:03;13.90;99.90
30889;DHT22;51092;50.874;7.024;2023-05-13T00:02:07;13.90;99.90
30889;DHT22;51092;50.874;7.024;2023-05-13T00:03:08;13.90;99.90
30889;DHT22;51092;50.874;7.024;2023-05-13T00:04:11;13.90;99.90
30889;DHT22;51092;50.874;7.024;2023-05-13T00:05:12;13.90;99.90
30889;DHT22;51092;50.874;7.024;2023-05-13T00:06:15;13.90;99.90
30889;DHT22;51092;50.874;7.024;2023-05-13T00:07:17;13.90;99.90
30889;DHT22;51092;50.874;7.024;2023-05-13T00:08:19;13.80;99.90
30889;DHT22;51092;50.874;7.024;2023-05-13T00:09:20;13.90;99.90
30889;DHT22;51092;50.874;7.024;2023-05-13T00:10:23;13.90;99.90
30889;DHT22;51092;50.874;7.024;2023-05-13T00:11:24;13.90;99.90
30889;DHT22;51092;50.874;7.024;2023-05-13T00:12:27;13.90;99.90
30889;DHT22;51092;50.874;7.024;2023-05-13T00:13:28;13.90;99.90
30889;DHT22;51092;50.874;7.024;2023-05-13T00:14:31;13.80;99.90
30889;DHT22;51092;50.874;7.024;2023-05-13T00:15:33;13.70;99.90
30889;DHT22;51092;50.874;7.024;2023-05-13T00:16:35;13.60;99.90
30889;DHT22;51092;50.874;7.024;2023-05-13T00:17:38;13.50;99.90
30889;DHT22;51092;50.874;7.024;2023-05-13T00:18:40;13.50;99.90
30889;DHT22;51092;50.874;7.024;2023-05-13T00:19:42;13.50;99.90
30889;DHT22;51092;50.874;7.024;2023-05-13T00:20:44;13.50;99.90
30889;DHT22;51092;50.874;7.024;2023-05-13T00:21:46;13.50;99.90
30889;DHT22;51092;50.874;7.024;2023-05-13T00:22:48;13.50;99.90
30889;DHT22;51092;50.874;7.024;2023-05-13T00:23:49;13.60;99.90
30889;DHT22;51092;50.874;7.024;2023-05-13T00:24:52;13.50;99.90
30889;DHT22;51092;50.874;7.024;2023-05-13T00:25:53;13.40;99.90
30889;DHT22;51092;50.874;7.024;2023-05-13T00:26:56;13.40;99.90
30889;DHT22;51092;50.874;7.024;2023-05-13T00:27:57;13.30;99.90
30889;DHT22;51092;50.874;7.024;2023-05-13T00:29:00;13.20;99.90
30889;DHT22;51092;50.874;7.024;2023-05-13T00:30:01;13.10;99.90
30889;DHT22;51092;50.874;7.024;2023-05-13T00:31:05;13.10;99.90
30889;DHT22;51092;50.874;7.024;2023-05-13T00:32:07;13.00;99.90
30889;DHT22;51092;50.874;7.024;2023-05-13T00:33:11;13.00;99.90
30889;DHT22;51092;50.874;7.024;2023-05-13T00:34:12;13.00;99.90
30889;DHT22;51092;50.874;7.024;2023-05-13T00:35:15;12.90;99.90
30889;DHT22;51092;50.874;7.024;2023-05-13T00:36:17;12.90;99.90
30889;DHT22;51092;50.874;7.024;2023-05-13T00:37:19;12.90;99.90
30889;DHT22;51092;50.874;7.024;2023-05-13T00:38:21;12.90;99.90
30889;DHT22;51092;50.874;7.024;2023-05-13T00:39:23;13.00;99.90
30889;DHT22;51092;50.874;7.024;2023-05-13T00:40:25;13.10;99.90
30889;DHT22;51092;50.874;7.024;2023-05-13T00:41:27;13.10;99.90
30889;DHT22;51092;50.874;7.024;2023-05-13T00:42:29;13.10;99.90
30889;DHT22;51092;50.874;7.024;2023-05-13T00:43:31;13.10;99.90
30889;DHT22;51092;50.874;7.024;2023-05-13T00:44:32;13.10;99.90
30889;DHT22;51092;50.874;7.024;2023-05-13T00:45:36;13.10;99.90
30889;DHT22;51092;50.874;7.024;2023-05-13T00:46:38;13.10;99.90
30889;DHT22;51092;50.874;7.024;2023-05-13T00:47:40;13.10;99.90
30889;DHT22;51092;50.874;7.024;2023-05-13T00:48:43;13.10;99.90
30889;DHT22;51092;50.874;7.024;2023-05-13T00:49:46;13.20;99.90
30889;DHT22;51092;50.874;7.024;2023-05-13T00:50:48;13.10;99.90
30889;DHT22;51092;50.874;7.024;2023-05-13T00:51:50;13.10;99.90
30889;DHT22;51092;50.874;7.024;2023-05-13T00:52:56;13.20;99.90
30889;DHT22;51092;50.874;7.024;2023-05-13T00:54:00;13.20;99.90
30889;DHT22;51092;50.874;7.024;2023-05-13T00:55:02;13.10;99.90
30889;DHT22;51092;50.874;7.024;2023-05-13T00:56:05;13.00;99.90
30889;DHT22;51092;50.874;7.024;2023-05-13T00:57:07;12.90;99.90
30889;DHT22;51092;50.874;7.024;2023-05-13T00:58:10;12.90;99.90
30889;DHT22;51092;50.874;7.024;2023-05-13T00:59:12;12.80;99.90
30889;DHT22;51092;50.874;7.024;2023-05-13T01:00:15;12.80;99.90
30889;DHT22;51092;50.874;7.024;2023-05-13T01:01:22;12.80;99.90
30889;DHT22;51092;50.874;7.024;2023-05-13T01:02:29;12.80;99.90
30889;DHT22;51092;50.874;7.024;2023-05-13T01:03:41;12.80;99.90
30889;DHT22;51092;50.874;7.024;2023-05-13T01:04:55;12.80;99.90
30889;DHT22;51092;50.874;7.024;2023-05-13T01:06:07;12.90;99.90
30889;DHT22;51092;50.874;7.024;2023-05-13T01:07:15;12.80;99.90
30889;DHT22;51092;50.874;7.024;2023-05-13T01:08:26;12.90;99.90
30889;DHT22;51092;50.874;7.024;2023-05-13T01:09:36;12.80;99.90
30889;DHT22;51092;50.874;7.024;2023-05-13T01:10:46;12.80;99.90
30889;DHT22;51092;50.874;7.024;2023-05-13T01:11:52;12.80;99.90
30889;DHT22;51092;50.874;7.024;2023-05-13T01:12:58;12.80;99.90
30889;DHT22;51092;50.874;7.024;2023-05-13T01:14:05;12.80;99.90
30889;DHT22;51092;50.874;7.024;2023-05-13T01:15:13;12.80;99.90
30889;DHT22;51092;50.874;7.024;2023-05-13T01:16:17;12.80;99.90
30889;DHT22;51092;50.874;7.024;2023-05-13T01:17:25;12.80;99.90
30889;DHT22;51092;50.874;7.024;2023-05-13T01:18:33;12.80;99.90
30889;DHT22;51092;50.874;7.024;2023-05-13T01:19:41;12.80;99.90
30889;DHT22;51092;50.874;7.024;2023-05-13T01:20:45;12.70;99.90
30889;DHT22;51092;50.874;7.024;2023-05-13T01:21:52;12.70;99.90
30889;DHT22;51092;50.874;7.024;2023-05-13T01:22:53;12.70;99.90
30889;DHT22;51092;50.874;7.024;2023-05-13T01:23:57;12.70;99.90
30889;DHT22;51092;50.874;7.024;2023-05-13T01:24:58;12.70;99.90
30889;DHT22;51092;50.874;7.024;2023-05-13T01:26:01;12.70;99.90
30889;DHT22;51092;50.874;7.024;2023-05-13T01:27:03;12.70;99.90
30889;DHT22;51092;50.874;7.024;2023-05-13T01:28:06;12.80;99.90
30889;DHT22;51092;50.874;7.024;2023-05-13T01:29:08;12.80;99.90
30889;DHT22;51092;50.874;7.024;2023-05-13T01:30:11;12.80;99.90
30889;DHT22;51092;50.874;7.024;2023-05-13T01:31:13;12.80;99.90
30889;DHT22;51092;50.874;7.024;2023-05-13T01:32:17;12.70;99.90
30889;DHT22;51092;50.874;7.024;2023-05-13T01:33:19;12.60;99.90
30889;DHT22;51092;50.874;7.024;2023-05-13T01:34:22;12.50;99.90
30889;DHT22;51092;50.874;7.024;2023-05-13T01:35:25;12.50;99.90
30889;DHT22;51092;50.874;7.024;2023-05-13T01:36:28;12.40;99.90
30889;DHT22;51092;50.874;7.024;2023-05-13T01:37:31;12.30;99.90
30889;DHT22;51092;50.874;7.024;2023-05-13T01:38:34;12.20;99.90
30889;DHT22;51092;50.874;7.024;2023-05-13T01:39:37;12.20;99.90
30889;DHT22;51092;50.874;7.024;2023-05-13T01:40:40;12.20;99.90
30889;DHT22;51092;50.874;7.024;2023-05-13T01:41:42;12.10;99.90
30889;DHT22;51092;50.874;7.024;2023-05-13T01:42:45;12.10;99.90
30889;DHT22;51092;50.874;7.024;2023-05-13T01:43:46;12.10;99.90
30889;DHT22;51092;50.874;7.024;2023-05-13T01:44:50;12.10;99.90
30889;DHT22;51092;50.874;7.024;2023-05-13T01:45:51;12.10;99.90
30889;DHT22;51092;50.874;7.024;2023-05-13T01:46:54;12.10;99.90
30889;DHT22;51092;50.874;7.024;2023-05-13T01:47:55;12.10;99.90
30889;DHT22;51092;50.874;7.024;2023-05-13T01:48:58;12.10;99.90
30889;DHT22;51092;50.874;7.024;2023-05-13T01:49:59;12.10;99.90
30889;DHT22;51092;50.874;7.024;2023-05-13T01:51:02;12.10;99.90
30889;DHT22;51092;50.874;7.024;2023-05-13T01:52:05;12.10;99.90
30889;DHT22;51092;50.874;7.024;2023-05-13T01:53:09;12.10;99.90
30889;DHT22;51092;50.874;7.024;2023-05-13T01:54:10;12.10;99.90
30889;DHT22;51092;50.874;7.024;2023-05-13T01:55:13;12.10;99.90
30889;DHT22;51092;50.874;7.024;2023-05-13T01:56:16;12.10;99.90
30889;DHT22;51092;50.874;7.024;2023-05-13T01:57:19;12.00;99.90
30889;DHT22;51092;50.874;7.024;2023-05-13T01:58:20;12.00;99.90
30889;DHT22;51092;50.874;7.024;2023-05-13T01:59:23;12.00;99.90
30889;DHT22;51092;50.874;7.024;2023-05-13T02:00:24;12.00;99.90
30889;DHT22;51092;50.874;7.024;2023-05-13T02:01:27;12.00;99.90
30889;DHT22;51092;50.874;7.024;2023-05-13T02:02:29;12.00;99.90
30889;DHT22;51092;50.874;7.024;2023-05-13T02:03:31;12.10;99.90
30889;DHT22;51092;50.874;7.024;2023-05-13T02:04:33;12.10;99.90
30889;DHT22;51092;50.874;7.024;2023-05-13T02:05:35;12.10;99.90
30889;DHT22;51092;50.874;7.024;2023-05-13T02:06:37;12.10;99.90
30889;DHT22;51092;50.874;7.024;2023-05-13T02:07:39;12.10;99.90
30889;DHT22;51092;50.874;7.024;2023-05-13T02:08:42;12.10;99.90
30889;DHT22;51092;50.874;7.024;2023-05-13T02:09:44;12.10;99.90
30889;DHT22;51092;50.874;7.024;2023-05-13T02:10:53;12.10;99.90
30889;DHT22;51092;50.874;7.024;2023-05-13T02:11:56;12.20;99.90
30889;DHT22;51092;50.874;7.024;2023-05-13T02:12:57;12.20;99.90
30889;DHT22;51092;50.874;7.024;2023-05-13T02:14:00;12.20;99.90
30889;DHT22;51092;50.874;7.024;2023-05-13T02:15:01;12.20;99.90
30889;DHT22;51092;50.874;7.024;2023-05-13T02:16:04;12.20;99.90
30889;DHT22;51092;50.874;7.024;2023-05-13T02:17:06;12.20;99.90
30889;DHT22;51092;50.874;7.024;2023-05-13T02:18:08;12.20;99.90
30889;DHT22;51092;50.874;7.024;2023-05-13T02:19:09;12.20;99.90
30889;DHT22;51092;50.874;7.024;2023-05-13T02:20:13;12.30;99.90
30889;DHT22;51092;50.874;7.024;2023-05-13T02:21:14;12.30;99.90
30889;DHT22;51092;50.874;7.024;2023-05-13T02:22:17;12.30;99.90
30889;DHT22;51092;50.874;7.024;2023-05-13T02:23:18;12.40;99.90
30889;DHT22;51092;50.874;7.024;2023-05-13T02:24:23;12.40;99.90
30889;DHT22;51092;50.874;7.024;2023-05-13T02:25:24;12.40;99.90
30889;DHT22;51092;50.874;7.024;2023-05-13T02:26:33;12.30;99.90
30889;DHT22;51092;50.874;7.024;2023-05-13T02:27:35;12.30;99.90
30889;DHT22;51092;50.874;7.024;2023-05-13T02:28:37;12.30;99.90
30889;DHT22;51092;50.874;7.024;2023-05-13T02:29:39;12.20;99.90
30889;DHT22;51092;50.874;7.024;2023-05-13T02:30:41;12.20;99.90
30889;DHT22;51092;50.874;7.024;2023-05-13T02:31:42;12.10;99.90
30889;DHT22;51092;50.874;7.024;2023-05-13T02:32:45;12.10;99.90
30889;DHT22;51092;50.874;7.024;2023-05-13T02:33:47;12.10;99.90
30889;DHT22;51092;50.874;7.024;2023-05-13T02:34:49;12.00;99.90
30889;DHT22;51092;50.874;7.024;2023-05-13T02:35:51;12.00;99.90
30889;DHT22;51092;50.874;7.024;2023-05-13T02:36:53;12.00;99.90
30889;DHT22;51092;50.874;7.024;2023-05-13T02:37:55;12.00;99.90
30889;DHT22;51092;50.874;7.024;2023-05-13T02:38:57;12.10;99.90
30889;DHT22;51092;50.874;7.024;2023-05-13T02:40:00;12.10;99.90
30889;DHT22;51092;50.874;7.024;2023-05-13T02:41:03;12.10;99.90
30889;DHT22;51092;50.874;7.024;2023-05-13T02:42:05;12.00;99.90
30889;DHT22;51092;50.874;7.024;2023-05-13T02:43:07;12.00;99.90
30889;DHT22;51092;50.874;7.024;2023-05-13T02:44:09;12.00;99.90
30889;DHT22;51092;50.874;7.024;2023-05-13T02:45:11;11.90;99.90
30889;DHT22;51092;50.874;7.024;2023-05-13T02:46:13;11.90;99.90
30889;DHT22;51092;50.874;7.024;2023-05-13T02:47:15;11.80;99.90
30889;DHT22;51092;50.874;7.024;2023-05-13T02:48:17;11.70;99.90
30889;DHT22;51092;50.874;7.024;2023-05-13T02:49:19;11.60;99.90
30889;DHT22;51092;50.874;7.024;2023-05-13T02:50:21;11.60;99.90
30889;DHT22;51092;50.874;7.024;2023-05-13T02:51:23;11.60;99.90
30889;DHT22;51092;50.874;7.024;2023-05-13T02:52:25;11.60;99.90
30889;DHT22;51092;50.874;7.024;2023-05-13T02:53:27;11.60;99.90
30889;DHT22;51092;50.874;7.024;2023-05-13T02:54:29;11.60;99.90
30889;DHT22;51092;50.874;7.024;2023-05-13T02:55:33;11.60;99.90
30889;DHT22;51092;50.874;7.024;2023-05-13T02:56:34;11.70;99.90
30889;DHT22;51092;50.874;7.024;2023-05-13T02:57:37;11.80;99.90
30889;DHT22;51092;50.874;7.024;2023-05-13T02:58:38;11.70;99.90
30889;DHT22;51092;50.874;7.024;2023-05-13T02:59:41;11.60;99.90
30889;DHT22;51092;50.874;7.024;2023-05-13T03:00:42;11.60;99.90
30889;DHT22;51092;50.874;7.024;2023-05-13T03:01:45;11.50;99.90
30889;DHT22;51092;50.874;7.024;2023-05-13T03:02:46;11.50;99.90
30889;DHT22;51092;50.874;7.024;2023-05-13T03:03:49;11.50;99.90
30889;DHT22;51092;50.874;7.024;2023-05-13T03:04:50;11.50;99.90
30889;DHT22;51092;50.874;7.024;2023-05-13T03:05:55;11.50;99.90
30889;DHT22;51092;50.874;7.024;2023-05-13T03:06:56;11.50;99.90
30889;DHT22;51092;50.874;7.024;2023-05-13T03:07:59;11.50;99.90
30889;DHT22;51092;50.874;7.024;2023-05-13T03:09:00;11.50;99.90
30889;DHT22;51092;50.874;7.024;2023-05-13T03:10:03;11.60;99.90
30889;DHT22;51092;50.874;7.024;2023-05-13T03:11:06;11.60;99.90
30889;DHT22;51092;50.874;7.024;2023-05-13T03:12:08;11.70;99.90
30889;DHT22;51092;50.874;7.024;2023-05-13T03:13:10;11.60;99.90
30889;DHT22;51092;50.874;7.024;2023-05-13T03:14:12;11.70;99.90
30889;DHT22;51092;50.874;7.024;2023-05-13T03:15:14;11.70;99.90
30889;DHT22;51092;50.874;7.024;2023-05-13T03:16:17;11.70;99.90
30889;DHT22;51092;50.874;7.024;2023-05-13T03:17:18;11.60;99.90
30889;DHT22;51092;50.874;7.024;2023-05-13T03:18:21;11.60;99.90
30889;DHT22;51092;50.874;7.024;2023-05-13T03:19:22;11.70;99.90
30889;DHT22;51092;50.874;7.024;2023-05-13T03:20:25;11.70;99.90
30889;DHT22;51092;50.874;7.024;2023-05-13T03:21:27;11.70;99.90
30889;DHT22;51092;50.874;7.024;2023-05-13T03:22:29;11.70;99.90
30889;DHT22;51092;50.874;7.024;2023-05-13T03:23:32;11.70;99.90
30889;DHT22;51092;50.874;7.024;2023-05-13T03:24:34;11.80;99.90
30889;DHT22;51092;50.874;7.024;2023-05-13T03:25:36;11.80;99.90
30889;DHT22;51092;50.874;7.024;2023-05-13T03:26:40;11.90;99.90
30889;DHT22;51092;50.874;7.024;2023-05-13T03:27:41;11.90;99.90
30889;DHT22;51092;50.874;7.024;2023-05-13T03:28:44;11.80;99.90
30889;DHT22;51092;50.874;7.024;2023-05-13T03:29:46;11.80;99.90
30889;DHT22;51092;50.874;7.024;2023-05-13T03:30:49;11.90;99.90
30889;DHT22;51092;50.874;7.024;2023-05-13T03:31:51;11.80;99.90
30889;DHT22;51092;50.874;7.024;2023-05-13T03:32:54;11.90;99.90
30889;DHT22;51092;50.874;7.024;2023-05-13T03:33:56;11.90;99.90
30889;DHT22;51092;50.874;7.024;2023-05-13T03:34:58;11.80;99.90
30889;DHT22;51092;50.874;7.024;2023-05-13T03:36:01;11.90;99.90
30889;DHT22;51092;50.874;7.024;2023-05-13T03:37:03;11.80;99.90
30889;DHT22;51092;50.874;7.024;2023-05-13T03:38:06;11.80;99.90
30889;DHT22;51092;50.874;7.024;2023-05-13T03:39:08;11.80;99.90
30889;DHT22;51092;50.874;7.024;2023-05-13T03:40:10;11.80;99.90
30889;DHT22;51092;50.874;7.024;2023-05-13T03:41:13;11.80;99.90
30889;DHT22;51092;50.874;7.024;2023-05-13T03:42:19;11.70;99.90
30889;DHT22;51092;50.874;7.024;2023-05-13T03:43:20;11.70;99.90
30889;DHT22;51092;50.874;7.024;2023-05-13T03:44:23;11.70;99.90
30889;DHT22;51092;50.874;7.024;2023-05-13T03:45:24;11.70;99.90
30889;DHT22;51092;50.874;7.024;2023-05-13T03:46:27;11.70;99.90
30889;DHT22;51092;50.874;7.024;2023-05-13T03:47:28;11.70;99.90
30889;DHT22;51092;50.874;7.024;2023-05-13T03:48:31;11.70;99.90
30889;DHT22;51092;50.874;7.024;2023-05-13T03:49:32;11.70;99.90
30889;DHT22;51092;50.874;7.024;2023-05-13T03:50:35;11.60;99.90
30889;DHT22;51092;50.874;7.024;2023-05-13T03:51:36;11.60;99.90
30889;DHT22;51092;50.874;7.024;2023-05-13T03:52:39;11.60;99.90
30889;DHT22;51092;50.874;7.024;2023-05-13T03:53:41;11.60;99.90
30889;DHT22;51092;50.874;7.024;2023-05-13T03:54:43;11.60;99.90
30889;DHT22;51092;50.874;7.024;2023-05-13T03:55:45;11.50;99.90
30889;DHT22;51092;50.874;7.024;2023-05-13T03:56:47;11.60;99.90
30889;DHT22;51092;50.874;7.024;2023-05-13T03:57:50;11.50;99.90
30889;DHT22;51092;50.874;7.024;2023-05-13T03:58:52;11.60;99.90
30889;DHT22;51092;50.874;7.024;2023-05-13T03:59:54;11.50;99.90
30889;DHT22;51092;50.874;7.024;2023-05-13T04:00:56;11.50;99.90
30889;DHT22;51092;50.874;7.024;2023-05-13T04:01:58;11.60;99.90
30889;DHT22;51092;50.874;7.024;2023-05-13T04:03:01;11.60;99.90
30889;DHT22;51092;50.874;7.024;2023-05-13T04:04:02;11.60;99.90
30889;DHT22;51092;50.874;7.024;2023-05-13T04:05:05;11.60;99.90
30889;DHT22;51092;50.874;7.024;2023-05-13T04:06:07;11.50;99.90
30889;DHT22;51092;50.874;7.024;2023-05-13T04:07:09;11.50;99.90
30889;DHT22;51092;50.874;7.024;2023-05-13T04:08:11;11.50;99.90
30889;DHT22;51092;50.874;7.024;2023-05-13T04:09:13;11.40;99.90
30889;DHT22;51092;50.874;7.024;2023-05-13T04:10:15;11.50;99.90
30889;DHT22;51092;50.874;7.024;2023-05-13T04:11:19;11.50;99.90
30889;DHT22;51092;50.874;7.024;2023-05-13T04:12:21;11.50;99.90
30889;DHT22;51092;50.874;7.024;2023-05-13T04:13:25;11.50;99.90
30889;DHT22;51092;50.874;7.024;2023-05-13T04:14:26;11.50;99.90
30889;DHT22;51092;50.874;7.024;2023-05-13T04:15:29;11.50;99.90
30889;DHT22;51092;50.874;7.024;2023-05-13T04:16:32;11.50;99.90
30889;DHT22;51092;50.874;7.024;2023-05-13T04:17:34;11.50;99.90
30889;DHT22;51092;50.874;7.024;2023-05-13T04:18:36;11.50;99.90
30889;DHT22;51092;50.874;7.024;2023-05-13T04:19:38;11.50;99.90
30889;DHT22;51092;50.874;7.024;2023-05-13T04:20:40;11.50;99.90
30889;DHT22;51092;50.874;7.024;2023-05-13T04:21:43;11.50;99.90
30889;DHT22;51092;50.874;7.024;2023-05-13T04:22:44;11.50;99.90
30889;DHT22;51092;50.874;7.024;2023-05-13T04:23:46;11.50;99.90
30889;DHT22;51092;50.874;7.024;2023-05-13T04:24:48;11.50;99.90
30889;DHT22;51092;50.874;7.024;2023-05-13T04:25:52;11.50;99.90
30889;DHT22;51092;50.874;7.024;2023-05-13T04:26:53;11.50;99.90
30889;DHT22;51092;50.874;7.024;2023-05-13T04:27:56;11.60;99.90
30889;DHT22;51092;50.874;7.024;2023-05-13T04:28:59;11.60;99.90
30889;DHT22;51092;50.874;7.024;2023-05-13T04:30:01;11.60;99.90
30889;DHT22;51092;50.874;7.024;2023-05-13T04:31:03;11.60;99.90
30889;DHT22;51092;50.874;7.024;2023-05-13T04:32:06;11.60;99.90
30889;DHT22;51092;50.874;7.024;2023-05-13T04:33:08;11.60;99.90
30889;DHT22;51092;50.874;7.024;2023-05-13T04:34:10;11.60;99.90
30889;DHT22;51092;50.874;7.024;2023-05-13T04:35:11;11.60;99.90
30889;DHT22;51092;50.874;7.024;2023-05-13T04:36:14;11.60;99.90
30889;DHT22;51092;50.874;7.024;2023-05-13T04:37:16;11.70;99.90
30889;DHT22;51092;50.874;7.024;2023-05-13T04:38:19;11.70;99.90
30889;DHT22;51092;50.874;7.024;2023-05-13T04:39:20;11.70;99.90
30889;DHT22;51092;50.874;7.024;2023-05-13T04:40:23;11.70;99.90
30889;DHT22;51092;50.874;7.024;2023-05-13T04:41:24;11.70;99.90
30889;DHT22;51092;50.874;7.024;2023-05-13T04:42:27;11.80;99.90
30889;DHT22;51092;50.874;7.024;2023-05-13T04:43:28;11.80;99.90
30889;DHT22;51092;50.874;7.024;2023-05-13T04:44:33;11.80;99.90
30889;DHT22;51092;50.874;7.024;2023-05-13T04:45:35;11.90;99.90
30889;DHT22;51092;50.874;7.024;2023-05-13T04:46:38;11.90;99.90
30889;DHT22;51092;50.874;7.024;2023-05-13T04:47:40;11.90;99.90
30889;DHT22;51092;50.874;7.024;2023-05-13T04:48:43;11.90;99.90
30889;DHT22;51092;50.874;7.024;2023-05-13T04:49:48;12.00;99.90
30889;DHT22;51092;50.874;7.024;2023-05-13T04:50:50;12.00;99.90
30889;DHT22;51092;50.874;7.024;2023-05-13T04:51:52;12.10;99.90
30889;DHT22;51092;50.874;7.024;2023-05-13T04:52:55;12.00;99.90
30889;DHT22;51092;50.874;7.024;2023-05-13T04:53:56;11.90;99.90
30889;DHT22;51092;50.874;7.024;2023-05-13T04:54:59;11.70;99.90
30889;DHT22;51092;50.874;7.024;2023-05-13T04:56:00;11.60;99.90
30889;DHT22;51092;50.874;7.024;2023-05-13T04:57:03;11.50;99.90
30889;DHT22;51092;50.874;7.024;2023-05-13T04:58:04;11.50;99.90
30889;DHT22;51092;50.874;7.024;2023-05-13T04:59:07;11.50;99.90
30889;DHT22;51092;50.874;7.024;2023-05-13T05:00:12;11.50;99.90
30889;DHT22;51092;50.874;7.024;2023-05-13T05:01:14;11.50;99.90
30889;DHT22;51092;50.874;7.024;2023-05-13T05:02:16;11.40;99.90
30889;DHT22;51092;50.874;7.024;2023-05-13T05:03:18;11.40;99.90
30889;DHT22;51092;50.874;7.024;2023-05-13T05:04:20;11.40;99.90
30889;DHT22;51092;50.874;7.024;2023-05-13T05:05:22;11.40;99.90
30889;DHT22;51092;50.874;7.024;2023-05-13T05:06:23;11.50;99.90
30889;DHT22;51092;50.874;7.024;2023-05-13T05:07:26;11.50;99.90
30889;DHT22;51092;50.874;7.024;2023-05-13T05:08:27;11.50;99.90
30889;DHT22;51092;50.874;7.024;2023-05-13T05:09:30;11.50;99.90
30889;DHT22;51092;50.874;7.024;2023-05-13T05:10:31;11.50;99.90
30889;DHT22;51092;50.874;7.024;2023-05-13T05:11:34;11.60;99.90
30889;DHT22;51092;50.874;7.024;2023-05-13T05:12:36;11.60;99.90
30889;DHT22;51092;50.874;7.024;2023-05-13T05:13:39;11.70;99.90
30889;DHT22;51092;50.874;7.024;2023-05-13T05:14:40;11.70;99.90
30889;DHT22;51092;50.874;7.024;2023-05-13T05:15:44;11.70;99.90
30889;DHT22;51092;50.874;7.024;2023-05-13T05:16:46;11.70;99.90
30889;DHT22;51092;50.874;7.024;2023-05-13T05:17:48;11.80;99.90
30889;DHT22;51092;50.874;7.024;2023-05-13T05:18:50;11.80;99.90
30889;DHT22;51092;50.874;7.024;2023-05-13T05:20:01;11.90;99.90
30889;DHT22;51092;50.874;7.024;2023-05-13T05:21:03;11.90;99.90
30889;DHT22;51092;50.874;7.024;2023-05-13T05:22:05;11.90;99.90
30889;DHT22;51092;50.874;7.024;2023-05-13T05:23:07;11.90;99.90
30889;DHT22;51092;50.874;7.024;2023-05-13T05:24:10;11.90;99.90
30889;DHT22;51092;50.874;7.024;2023-05-13T05:25:12;11.90;99.90
30889;DHT22;51092;50.874;7.024;2023-05-13T05:26:14;12.00;99.90
30889;DHT22;51092;50.874;7.024;2023-05-13T05:27:15;12.10;99.90
30889;DHT22;51092;50.874;7.024;2023-05-13T05:28:19;12.20;99.90
30889;DHT22;51092;50.874;7.024;2023-05-13T05:29:20;12.30;99.90
30889;DHT22;51092;50.874;7.024;2023-05-13T05:30:23;12.30;99.90
30889;DHT22;51092;50.874;7.024;2023-05-13T05:31:26;12.40;99.90
30889;DHT22;51092;50.874;7.024;2023-05-13T05:32:28;12.50;99.90
30889;DHT22;51092;50.874;7.024;2023-05-13T05:33:30;12.60;99.90
30889;DHT22;51092;50.874;7.024;2023-05-13T05:34:33;12.60;99.90
30889;DHT22;51092;50.874;7.024;2023-05-13T05:35:34;12.60;99.90
30889;DHT22;51092;50.874;7.024;2023-05-13T05:36:38;12.70;99.90
30889;DHT22;51092;50.874;7.024;2023-05-13T05:37:39;12.70;99.90
30889;DHT22;51092;50.874;7.024;2023-05-13T05:38:42;12.70;99.90
30889;DHT22;51092;50.874;7.024;2023-05-13T05:39:43;12.80;99.90
30889;DHT22;51092;50.874;7.024;2023-05-13T05:40:46;12.70;99.90
30889;DHT22;51092;50.874;7.024;2023-05-13T05:41:48;12.70;99.90
30889;DHT22;51092;50.874;7.024;2023-05-13T05:42:50;12.70;99.90
30889;DHT22;51092;50.874;7.024;2023-05-13T05:43:52;12.70;99.90
30889;DHT22;51092;50.874;7.024;2023-05-13T05:44:54;12.80;99.90
30889;DHT22;51092;50.874;7.024;2023-05-13T05:45:57;12.80;99.90
30889;DHT22;51092;50.874;7.024;2023-05-13T05:47:00;12.80;99.90
30889;DHT22;51092;50.874;7.024;2023-05-13T05:48:02;12.80;99.90
30889;DHT22;51092;50.874;7.024;2023-05-13T05:49:05;12.80;99.90
30889;DHT22;51092;50.874;7.024;2023-05-13T05:50:08;12.80;99.90
30889;DHT22;51092;50.874;7.024;2023-05-13T05:51:11;12.80;99.90
30889;DHT22;51092;50.874;7.024;2023-05-13T05:52:13;12.80;99.90
30889;DHT22;51092;50.874;7.024;2023-05-13T05:53:15;12.80;99.90
30889;DHT22;51092;50.874;7.024;2023-05-13T05:54:17;12.80;99.90
30889;DHT22;51092;50.874;7.024;2023-05-13T05:55:20;12.90;99.90
30889;DHT22;51092;50.874;7.024;2023-05-13T05:56:21;12.90;99.90
30889;DHT22;51092;50.874;7.024;2023-05-13T05:57:24;12.90;99.90
30889;DHT22;51092;50.874;7.024;2023-05-13T05:58:25;12.90;99.90
30889;DHT22;51092;50.874;7.024;2023-05-13T05:59:28;13.10;99.90
30889;DHT22;51092;50.874;7.024;2023-05-13T06:00:29;13.10;99.90
30889;DHT22;51092;50.874;7.024;2023-05-13T06:01:32;13.10;99.90
30889;DHT22;51092;50.874;7.024;2023-05-13T06:02:38;13.10;99.90
30889;DHT22;51092;50.874;7.024;2023-05-13T06:03:40;13.10;99.90
30889;DHT22;51092;50.874;7.024;2023-05-13T06:04:42;13.20;99.90
30889;DHT22;51092;50.874;7.024;2023-05-13T06:05:43;13.20;99.90
30889;DHT22;51092;50.874;7.024;2023-05-13T06:06:46;13.20;99.90
30889;DHT22;51092;50.874;7.024;2023-05-13T06:07:47;13.40;99.90
30889;DHT22;51092;50.874;7.024;2023-05-13T06:08:50;13.40;99.90
30889;DHT22;51092;50.874;7.024;2023-05-13T06:09:51;13.40;99.90
30889;DHT22;51092;50.874;7.024;2023-05-13T06:10:54;13.40;99.90
30889;DHT22;51092;50.874;7.024;2023-05-13T06:11:55;13.50;99.90
30889;DHT22;51092;50.874;7.024;2023-05-13T06:12:57;13.50;99.90
30889;DHT22;51092;50.874;7.024;2023-05-13T06:13:58;13.60;99.90
30889;DHT22;51092;50.874;7.024;2023-05-13T06:15:00;13.60;99.90
30889;DHT22;51092;50.874;7.024;2023-05-13T06:16:02;13.60;99.90
30889;DHT22;51092;50.874;7.024;2023-05-13T06:17:04;13.60;99.90
30889;DHT22;51092;50.874;7.024;2023-05-13T06:18:07;13.60;99.90
30889;DHT22;51092;50.874;7.024;2023-05-13T06:19:10;13.60;99.90
30889;DHT22;51092;50.874;7.024;2023-05-13T06:20:11;13.60;99.90
30889;DHT22;51092;50.874;7.024;2023-05-13T06:21:14;13.70;99.90
30889;DHT22;51092;50.874;7.024;2023-05-13T06:22:16;13.70;99.90
30889;DHT22;51092;50.874;7.024;2023-05-13T06:23:18;13.80;99.90
30889;DHT22;51092;50.874;7.024;2023-05-13T06:24:20;13.90;99.90
30889;DHT22;51092;50.874;7.024;2023-05-13T06:25:22;13.90;99.90
30889;DHT22;51092;50.874;7.024;2023-05-13T06:26:24;13.90;99.90
30889;DHT22;51092;50.874;7.024;2023-05-13T06:27:26;13.90;99.90
30889;DHT22;51092;50.874;7.024;2023-05-13T06:28:28;14.00;99.90
30889;DHT22;51092;50.874;7.024;2023-05-13T06:29:30;14.00;99.90
30889;DHT22;51092;50.874;7.024;2023-05-13T06:30:31;14.10;99.90
30889;DHT22;51092;50.874;7.024;2023-05-13T06:31:33;14.10;99.90
30889;DHT22;51092;50.874;7.024;2023-05-13T06:32:34;14.10;99.90
30889;DHT22;51092;50.874;7.024;2023-05-13T06:33:37;14.10;99.90
30889;DHT22;51092;50.874;7.024;2023-05-13T06:34:39;14.10;99.90